Time;durP1;ratioP1;P1;durP2;ratioP2;P2;SDS_P1;SDS_P2;PMS_P1;PMS_P2;Temp;Humidity;BMP_temperature;BMP_pressure;BME280_temperature;BME280_humidity;BME280_pressure;Samples;Min_cycle;Max_cycle;Signal;HPM_P1;HPM_P2
2023/11/25 00:01:30;;;;;;;;;;;6.70;71.90;;;;;;5057161;28;19925;-71
2023/11/25 00:03:55;;;;;;;;;;;6.70;71.90;;;;;;5075568;28;19923;-75
2023/11/25 00:06:21;;;;;;;;;;;6.70;71.90;;;;;;5076034;28;19921;-71
2023/11/25 00:08:47;;;;;;;;;;;6.70;71.90;;;;;;5057605;28;19920;-71
2023/11/25 00:11:13;;;;;;;;;;;6.70;71.90;;;;;;5056945;28;19925;-71
2023/11/25 00:13:40;;;;;;;;;;;6.70;72.00;;;;;;5075397;28;19927;-72
2023/11/25 00:16:08;;;;;;;;;;;6.70;71.90;;;;;;5057747;28;19916;-74
2023/11/25 00:18:34;;;;;;;;;;;6.60;71.80;;;;;;5057321;28;19964;-71
2023/11/25 00:21:00;;;;;;;;;;;6.60;72.00;;;;;;5075008;28;19931;-72
2023/11/25 00:23:27;;;;;;;;;;;6.60;71.90;;;;;;5075217;28;19943;-71
2023/11/25 00:25:54;;;;;;;;;;;6.60;71.90;;;;;;5075601;28;20367;-71
2023/11/25 00:28:20;;;;;;;;;;;6.50;72.10;;;;;;5075291;28;20038;-73
2023/11/25 00:30:46;;;;;;;;;;;6.40;72.10;;;;;;5056280;28;19925;-75
2023/11/25 00:33:13;;;;;;;;;;;6.30;72.20;;;;;;5056777;28;20011;-71
2023/11/25 00:35:40;;;;;;;;;;;6.20;73.20;;;;;;5075486;28;19916;-75
2023/11/25 00:38:08;;;;;;;;;;;6.10;73.30;;;;;;5057299;28;19925;-71
2023/11/25 00:40:34;;;;;;;;;;;6.10;74.10;;;;;;5074460;28;19964;-72
2023/11/25 00:43:00;;;;;;;;;;;6.10;73.70;;;;;;5040216;28;19967;-75
2023/11/25 00:45:26;;;;;;;;;;;6.20;73.90;;;;;;5040284;28;20015;-75
2023/11/25 00:47:53;;;;;;;;;;;6.10;74.00;;;;;;5074821;28;19978;-75
2023/11/25 00:50:19;;;;;;;;;;;6.10;73.80;;;;;;5056182;28;19926;-71
2023/11/25 00:52:45;;;;;;;;;;;6.10;72.90;;;;;;5074639;28;19916;-75
2023/11/25 00:55:11;;;;;;;;;;;6.20;73.10;;;;;;5056512;28;20308;-71
2023/11/25 00:57:37;;;;;;;;;;;6.20;72.40;;;;;;5056720;28;19917;-75
2023/11/25 01:00:05;;;;;;;;;;;6.20;73.00;;;;;;5056166;28;19925;-74
2023/11/25 01:02:31;;;;;;;;;;;6.10;73.40;;;;;;5056509;28;19912;-75
2023/11/25 01:04:56;;;;;;;;;;;6.00;73.80;;;;;;5040058;28;20342;-75
2023/11/25 01:07:22;;;;;;;;;;;5.90;73.90;;;;;;5039659;28;19920;-75
2023/11/25 01:09:49;;;;;;;;;;;5.90;73.90;;;;;;5039684;28;19932;-75
2023/11/25 01:12:15;;;;;;;;;;;5.90;73.50;;;;;;5073502;28;19928;-71
2023/11/25 01:14:40;;;;;;;;;;;6.00;73.40;;;;;;5056580;28;19986;-75
2023/11/25 01:17:06;;;;;;;;;;;6.00;73.40;;;;;;5056705;28;19921;-75
2023/11/25 01:19:32;;;;;;;;;;;6.00;73.20;;;;;;5073822;28;19924;-75
2023/11/25 01:21:58;;;;;;;;;;;6.00;73.10;;;;;;5073519;28;20015;-71
2023/11/25 01:24:24;;;;;;;;;;;6.00;73.10;;;;;;5039438;28;19927;-71
2023/11/25 01:26:50;;;;;;;;;;;6.00;73.10;;;;;;5073958;28;20011;-71
2023/11/25 01:29:17;;;;;;;;;;;5.90;73.20;;;;;;5073976;28;19927;-71
2023/11/25 01:31:43;;;;;;;;;;;5.90;72.70;;;;;;5055568;28;19982;-75
2023/11/25 01:34:10;;;;;;;;;;;6.00;73.10;;;;;;5055734;28;19917;-71
2023/11/25 01:36:37;;;;;;;;;;;6.00;72.90;;;;;;5039411;28;20388;-71
2023/11/25 01:39:05;;;;;;;;;;;6.00;73.10;;;;;;5073660;28;19943;-71
2023/11/25 01:41:31;;;;;;;;;;;5.90;73.70;;;;;;5038774;28;19928;-71
2023/11/25 01:43:57;;;;;;;;;;;5.80;73.40;;;;;;5073595;28;20384;-75
2023/11/25 01:46:43;;;;;;;;;;;5.80;74.00;;;;;;5056071;28;19924;-75
2023/11/25 01:49:14;;;;;;;;;;;5.80;74.20;;;;;;5055436;28;19920;-74
2023/11/25 01:51:44;;;;;;;;;;;5.70;74.20;;;;;;5055102;28;19928;-71
2023/11/25 01:54:13;;;;;;;;;;;5.70;74.60;;;;;;5055656;28;19939;-75
2023/11/25 01:56:40;;;;;;;;;;;5.70;74.50;;;;;;5073526;28;19967;-71
2023/11/25 01:59:07;;;;;;;;;;;5.70;74.40;;;;;;5055430;28;20293;-71
2023/11/25 02:01:34;;;;;;;;;;;5.80;74.30;;;;;;5054804;28;20015;-74
2023/11/25 02:04:00;;;;;;;;;;;5.80;74.20;;;;;;5073191;28;19956;-71
2023/11/25 02:06:26;;;;;;;;;;;5.80;73.80;;;;;;5055605;28;20270;-72
2023/11/25 02:08:52;;;;;;;;;;;5.80;74.30;;;;;;5055555;28;20393;-76
2023/11/25 02:11:18;;;;;;;;;;;5.70;73.80;;;;;;5054560;28;19924;-73
2023/11/25 02:13:44;;;;;;;;;;;5.70;74.40;;;;;;5054992;28;19916;-74
2023/11/25 02:16:11;;;;;;;;;;;5.70;74.50;;;;;;5073675;28;19974;-74
2023/11/25 02:18:37;;;;;;;;;;;5.80;74.50;;;;;;5055305;28;20356;-75
2023/11/25 02:21:05;;;;;;;;;;;5.70;73.90;;;;;;5054823;28;19924;-72
2023/11/25 02:23:34;;;;;;;;;;;5.70;74.50;;;;;;5055430;28;19916;-75
2023/11/25 02:26:00;;;;;;;;;;;5.70;74.60;;;;;;5073556;28;19971;-75
2023/11/25 02:28:26;;;;;;;;;;;5.70;74.80;;;;;;5055211;28;19916;-75
2023/11/25 02:30:52;;;;;;;;;;;5.70;74.70;;;;;;5054173;28;20019;-75
2023/11/25 02:33:19;;;;;;;;;;;5.70;74.70;;;;;;5051192;28;20369;-71
2023/11/25 02:38:30;;;;;;;;;;;5.60;74.90;;;;;;5093065;28;19926;-71
2023/11/25 02:40:56;;;;;;;;;;;5.50;75.10;;;;;;5092762;28;20347;-75
2023/11/25 02:43:22;;;;;;;;;;;5.50;74.70;;;;;;5075037;28;19965;-75
2023/11/25 02:45:48;;;;;;;;;;;5.40;75.20;;;;;;5075024;28;19932;-72
2023/11/25 02:48:16;;;;;;;;;;;5.40;75.30;;;;;;5075145;28;20510;-75
2023/11/25 02:50:42;;;;;;;;;;;5.40;75.40;;;;;;5092422;28;19928;-75
2023/11/25 02:53:09;;;;;;;;;;;5.30;75.40;;;;;;5092820;28;19916;-75
2023/11/25 02:55:35;;;;;;;;;;;5.30;75.20;;;;;;5062291;28;19989;-75
2023/11/25 02:58:02;;;;;;;;;;;5.20;74.90;;;;;;5054968;28;19921;-75
2023/11/25 03:00:28;;;;;;;;;;;5.20;74.90;;;;;;5038398;28;19970;-75
2023/11/25 03:05:45;;;;;;;;;;;5.00;75.00;;;;;;5061831;28;19932;-75
2023/11/25 03:08:12;;;;;;;;;;;5.00;75.10;;;;;;5059145;28;19920;-75
2023/11/25 03:10:41;;;;;;;;;;;5.00;75.20;;;;;;5075987;28;19924;-72
2023/11/25 03:13:10;;;;;;;;;;;5.00;75.20;;;;;;5041858;28;19923;-76
2023/11/25 03:15:37;;;;;;;;;;;5.00;75.10;;;;;;5076942;28;20272;-71
2023/11/25 03:18:05;;;;;;;;;;;4.90;75.30;;;;;;5058609;28;20372;-74
2023/11/25 03:20:33;;;;;;;;;;;4.80;75.20;;;;;;5075709;28;20323;-75
2023/11/25 03:23:00;;;;;;;;;;;4.80;75.20;;;;;;5058708;28;20296;-71
2023/11/25 03:25:27;;;;;;;;;;;4.80;75.50;;;;;;5058563;28;19928;-71
2023/11/25 03:27:54;;;;;;;;;;;4.70;75.50;;;;;;5058703;28;19917;-75
2023/11/25 03:30:20;;;;;;;;;;;4.70;75.70;;;;;;5057512;28;19925;-75
2023/11/25 03:32:46;;;;;;;;;;;4.70;75.80;;;;;;5041785;28;19985;-74
2023/11/25 03:35:13;;;;;;;;;;;4.70;75.90;;;;;;5058415;28;20377;-71
2023/11/25 03:37:40;;;;;;;;;;;4.70;76.20;;;;;;5058632;28;19916;-71
2023/11/25 03:40:07;;;;;;;;;;;4.70;75.90;;;;;;5075717;28;19924;-74
2023/11/25 03:42:53;;;;;;;;;;;4.70;75.60;;;;;;5058062;28;19997;-75
2023/11/25 03:45:20;;;;;;;;;;;4.70;75.60;;;;;;5058440;28;19969;-75
2023/11/25 03:47:47;;;;;;;;;;;4.50;76.10;;;;;;5058502;28;19925;-71
2023/11/25 03:50:13;;;;;;;;;;;4.40;76.30;;;;;;5057145;28;20046;-71
2023/11/25 03:52:40;;;;;;;;;;;4.30;76.00;;;;;;5057806;28;20377;-71
2023/11/25 03:55:09;;;;;;;;;;;4.30;76.40;;;;;;5065762;28;19963;-71
2023/11/25 03:57:37;;;;;;;;;;;4.30;76.30;;;;;;5095970;28;19916;-72
2023/11/25 04:00:14;;;;;;;;;;;4.30;76.20;;;;;;5077563;28;19964;-74
2023/11/25 04:02:42;;;;;;;;;;;4.40;75.90;;;;;;5062681;28;20326;-71
2023/11/25 04:05:08;;;;;;;;;;;4.40;75.90;;;;;;5077720;28;20353;-75
2023/11/25 04:07:34;;;;;;;;;;;4.40;76.00;;;;;;5077883;28;19916;-71
2023/11/25 04:10:06;;;;;;;;;;;4.40;76.10;;;;;;5077875;28;19924;-71
2023/11/25 04:12:33;;;;;;;;;;;4.30;76.20;;;;;;5094790;28;19924;-75
2023/11/25 04:14:59;;;;;;;;;;;4.30;76.10;;;;;;5077692;28;19931;-71
2023/11/25 04:17:25;;;;;;;;;;;4.30;76.10;;;;;;5095581;28;19916;-74
2023/11/25 04:19:51;;;;;;;;;;;4.30;76.30;;;;;;5077640;28;19928;-75
2023/11/25 04:22:17;;;;;;;;;;;4.10;76.60;;;;;;5077047;28;19967;-71
2023/11/25 04:24:43;;;;;;;;;;;4.10;76.50;;;;;;5060963;28;19964;-75
2023/11/25 04:27:10;;;;;;;;;;;4.10;76.60;;;;;;5095495;28;19916;-71
2023/11/25 04:29:35;;;;;;;;;;;4.00;76.40;;;;;;5060545;28;19924;-74
2023/11/25 04:32:01;;;;;;;;;;;4.00;76.40;;;;;;5073859;28;19978;-71
2023/11/25 04:34:27;;;;;;;;;;;4.00;76.60;;;;;;5075055;28;19932;-75
2023/11/25 04:36:53;;;;;;;;;;;3.90;76.70;;;;;;5057405;28;19923;-72
2023/11/25 04:39:19;;;;;;;;;;;3.90;76.70;;;;;;5056867;28;19916;-75
2023/11/25 04:41:45;;;;;;;;;;;3.90;76.80;;;;;;5056725;28;19920;-75
2023/11/25 04:44:11;;;;;;;;;;;3.80;76.80;;;;;;5074788;28;19917;-71
2023/11/25 04:46:37;;;;;;;;;;;3.70;76.80;;;;;;5056822;28;19923;-71
2023/11/25 04:49:04;;;;;;;;;;;3.70;76.80;;;;;;5040014;28;19917;-71
2023/11/25 04:51:31;;;;;;;;;;;3.70;76.80;;;;;;5039523;28;19920;-70
2023/11/25 04:53:57;;;;;;;;;;;3.60;76.70;;;;;;5074529;28;19963;-75
2023/11/25 04:56:23;;;;;;;;;;;3.60;76.70;;;;;;5056626;28;20019;-71
2023/11/25 04:58:49;;;;;;;;;;;3.60;76.70;;;;;;5056548;28;19938;-71
2023/11/25 05:01:15;;;;;;;;;;;3.50;76.80;;;;;;5056174;28;19942;-75
2023/11/25 05:03:40;;;;;;;;;;;3.50;76.80;;;;;;5056606;28;20023;-75
2023/11/25 05:06:09;;;;;;;;;;;3.40;76.80;;;;;;5056753;28;20253;-75
2023/11/25 05:08:35;;;;;;;;;;;3.30;76.60;;;;;;5074437;28;20007;-71
2023/11/25 05:11:01;;;;;;;;;;;3.30;76.10;;;;;;5073938;28;20014;-71
2023/11/25 05:13:27;;;;;;;;;;;3.30;76.70;;;;;;5074171;28;20003;-70
2023/11/25 05:15:54;;;;;;;;;;;3.30;76.60;;;;;;5056456;28;20019;-75
2023/11/25 05:18:21;;;;;;;;;;;3.20;76.40;;;;;;5074250;28;19917;-72
2023/11/25 05:20:47;;;;;;;;;;;3.20;76.40;;;;;;5055427;28;20365;-74
2023/11/25 05:23:13;;;;;;;;;;;3.20;76.40;;;;;;5073283;28;20011;-75
2023/11/25 05:25:39;;;;;;;;;;;3.20;76.40;;;;;;5039535;28;20372;-71
2023/11/25 05:28:05;;;;;;;;;;;3.10;76.40;;;;;;5074130;28;19921;-75
2023/11/25 05:30:30;;;;;;;;;;;3.10;76.40;;;;;;5073310;28;19987;-75
2023/11/25 05:32:56;;;;;;;;;;;3.10;76.60;;;;;;5073509;28;20293;-75
2023/11/25 05:35:22;;;;;;;;;;;3.00;76.40;;;;;;5074112;28;19933;-75
2023/11/25 05:37:48;;;;;;;;;;;3.00;76.60;;;;;;5073905;28;20348;-71
2023/11/25 05:40:14;;;;;;;;;;;3.00;76.60;;;;;;5038563;28;19936;-74
2023/11/25 05:42:47;;;;;;;;;;;2.90;76.60;;;;;;5073469;28;19917;-75
2023/11/25 05:45:13;;;;;;;;;;;2.90;76.60;;;;;;5056991;28;20393;-70
2023/11/25 05:47:39;;;;;;;;;;;2.80;76.40;;;;;;5039186;28;19920;-71
2023/11/25 05:50:06;;;;;;;;;;;2.80;76.40;;;;;;5054994;28;19999;-74
2023/11/25 05:52:32;;;;;;;;;;;2.70;76.40;;;;;;5073385;28;19917;-75
2023/11/25 05:54:58;;;;;;;;;;;2.70;76.10;;;;;;5055520;28;19931;-75
2023/11/25 05:57:25;;;;;;;;;;;2.70;76.70;;;;;;5073333;28;19916;-75
2023/11/25 05:59:51;;;;;;;;;;;2.70;76.60;;;;;;5055665;28;19964;-71
2023/11/25 06:02:17;;;;;;;;;;;2.60;76.50;;;;;;5054688;28;19951;-76
2023/11/25 06:04:43;;;;;;;;;;;2.60;76.40;;;;;;5055679;28;20382;-71
2023/11/25 06:07:09;;;;;;;;;;;2.60;76.40;;;;;;5055284;28;20331;-71
2023/11/25 06:09:35;;;;;;;;;;;2.60;76.40;;;;;;5073211;28;20296;-75
2023/11/25 06:12:01;;;;;;;;;;;2.50;76.50;;;;;;5054467;28;19949;-75
2023/11/25 06:14:28;;;;;;;;;;;2.50;76.50;;;;;;5073221;28;19924;-75
2023/11/25 06:16:56;;;;;;;;;;;2.50;76.60;;;;;;5055551;28;19921;-71
2023/11/25 06:19:23;;;;;;;;;;;2.50;76.60;;;;;;5072987;28;19932;-75
2023/11/25 06:21:49;;;;;;;;;;;2.40;76.40;;;;;;5054633;28;19921;-75
2023/11/25 06:24:15;;;;;;;;;;;2.40;76.60;;;;;;5072814;28;20015;-71
2023/11/25 06:26:41;;;;;;;;;;;2.40;75.50;;;;;;5038547;28;20331;-70
2023/11/25 06:29:07;;;;;;;;;;;2.30;75.90;;;;;;5054999;28;20012;-73
2023/11/25 06:31:35;;;;;;;;;;;2.30;75.90;;;;;;5054533;28;20285;-73
2023/11/25 06:34:01;;;;;;;;;;;2.30;75.90;;;;;;5055082;28;19916;-71
2023/11/25 06:36:27;;;;;;;;;;;2.30;75.20;;;;;;5055080;28;19959;-71
2023/11/25 06:38:54;;;;;;;;;;;2.30;75.90;;;;;;5055018;28;19924;-71
2023/11/25 06:41:23;;;;;;;;;;;2.30;75.70;;;;;;5072427;28;20015;-71
2023/11/25 06:43:49;;;;;;;;;;;2.40;75.30;;;;;;5072766;28;19995;-75
2023/11/25 06:46:15;;;;;;;;;;;2.50;74.50;;;;;;5055072;28;19923;-71
2023/11/25 06:48:41;;;;;;;;;;;2.60;74.80;;;;;;5054923;28;19967;-74
2023/11/25 06:51:10;;;;;;;;;;;2.60;74.60;;;;;;5037531;28;20285;-75
2023/11/25 06:53:36;;;;;;;;;;;2.70;74.50;;;;;;5055079;28;19916;-71
2023/11/25 06:56:02;;;;;;;;;;;2.70;74.50;;;;;;5054623;28;20105;-71
2023/11/25 06:58:28;;;;;;;;;;;2.80;73.80;;;;;;5072791;28;19916;-75
2023/11/25 07:00:57;;;;;;;;;;;2.80;74.20;;;;;;5054266;28;20007;-70
2023/11/25 07:03:23;;;;;;;;;;;2.90;74.20;;;;;;5055065;28;19960;-75
2023/11/25 07:05:49;;;;;;;;;;;2.90;74.10;;;;;;5038119;28;19973;-75
2023/11/25 07:08:15;;;;;;;;;;;3.00;75.00;;;;;;5054575;28;19928;-74
2023/11/25 07:10:51;;;;;;;;;;;3.10;74.30;;;;;;5077481;28;19932;-71
2023/11/25 07:13:17;;;;;;;;;;;3.20;74.10;;;;;;5087047;28;20360;-71
2023/11/25 07:15:44;;;;;;;;;;;3.30;73.90;;;;;;5083087;28;19963;-75
2023/11/25 07:18:12;;;;;;;;;;;3.30;73.60;;;;;;5069808;28;19916;-72
2023/11/25 07:20:39;;;;;;;;;;;3.40;73.40;;;;;;5074250;28;19938;-71
2023/11/25 07:23:05;;;;;;;;;;;3.50;73.20;;;;;;5074326;28;19916;-75
2023/11/25 07:25:32;;;;;;;;;;;3.50;73.30;;;;;;5053007;28;19920;-71
2023/11/25 07:27:58;;;;;;;;;;;3.60;73.10;;;;;;5057742;28;19995;-75
2023/11/25 07:30:24;;;;;;;;;;;3.70;72.50;;;;;;5090777;28;19928;-76
2023/11/25 07:32:50;;;;;;;;;;;3.80;72.70;;;;;;5092540;28;19958;-73
2023/11/25 07:35:16;;;;;;;;;;;3.80;72.50;;;;;;5066555;28;19924;-75
2023/11/25 07:37:42;;;;;;;;;;;3.80;72.30;;;;;;5075161;28;19928;-75
2023/11/25 07:40:09;;;;;;;;;;;3.80;72.40;;;;;;5083892;28;20002;-71
2023/11/25 07:45:21;;;;;;;;;;;3.80;72.10;;;;;;5071952;28;19932;-75
2023/11/25 07:47:47;;;;;;;;;;;3.90;72.10;;;;;;5095111;28;19916;-75
2023/11/25 07:50:14;;;;;;;;;;;3.90;71.80;;;;;;5076599;28;19931;-71
2023/11/25 07:52:40;;;;;;;;;;;4.00;71.90;;;;;;5049732;28;19927;-71
2023/11/25 07:55:06;;;;;;;;;;;4.00;71.80;;;;;;5087454;28;19925;-71
2023/11/25 07:57:32;;;;;;;;;;;4.10;71.50;;;;;;5096193;28;19916;-71
2023/11/25 07:59:58;;;;;;;;;;;4.40;71.30;;;;;;5077872;28;19955;-75
2023/11/25 08:02:24;;;;;;;;;;;4.60;70.90;;;;;;5094502;28;20007;-71
2023/11/25 08:04:51;;;;;;;;;;;4.70;70.00;;;;;;5081057;28;19976;-71
2023/11/25 08:07:17;;;;;;;;;;;4.70;70.60;;;;;;5097318;28;19928;-71
2023/11/25 08:09:43;;;;;;;;;;;4.60;70.30;;;;;;5069037;28;20270;-71
2023/11/25 08:12:09;;;;;;;;;;;4.50;71.40;;;;;;5056532;28;19928;-71
2023/11/25 08:14:35;;;;;;;;;;;4.40;71.00;;;;;;5057268;28;20373;-76
2023/11/25 08:17:02;;;;;;;;;;;4.30;72.10;;;;;;5075426;28;19956;-73
2023/11/25 08:19:28;;;;;;;;;;;4.20;72.20;;;;;;5088993;28;19924;-72
2023/11/25 08:21:54;;;;;;;;;;;4.30;72.50;;;;;;5076854;28;19921;-71
2023/11/25 08:24:20;;;;;;;;;;;4.50;72.50;;;;;;5076237;28;19920;-75
2023/11/25 08:26:46;;;;;;;;;;;4.60;71.50;;;;;;5071791;28;20383;-72
2023/11/25 08:29:12;;;;;;;;;;;5.00;71.30;;;;;;5086773;28;20015;-76
2023/11/25 08:31:39;;;;;;;;;;;5.20;70.30;;;;;;5094666;28;20289;-75
2023/11/25 08:34:09;;;;;;;;;;;5.50;70.30;;;;;;5085901;28;19962;-71
2023/11/25 08:36:53;;;;;;;;;;;5.70;68.60;;;;;;5082167;28;19959;-75
2023/11/25 08:39:38;;;;;;;;;;;5.90;69.20;;;;;;5076891;28;19916;-75
2023/11/25 08:42:05;;;;;;;;;;;6.20;69.00;;;;;;5076572;28;19931;-74
2023/11/25 08:44:30;;;;;;;;;;;6.70;67.80;;;;;;5076680;28;19924;-71
2023/11/25 08:46:59;;;;;;;;;;;7.30;66.30;;;;;;5058345;28;20312;-74
2023/11/25 08:49:25;;;;;;;;;;;7.80;64.60;;;;;;5057238;28;19959;-75
2023/11/25 08:51:51;;;;;;;;;;;7.90;63.30;;;;;;5074552;28;19967;-75
2023/11/25 08:54:18;;;;;;;;;;;8.00;64.30;;;;;;5056540;28;19917;-74
2023/11/25 08:59:31;;;;;;;;;;;8.20;63.20;;;;;;5058402;28;19930;-75
2023/11/25 09:01:58;;;;;;;;;;;9.10;61.60;;;;;;5075727;28;20381;-71
2023/11/25 09:04:26;;;;;;;;;;;10.00;58.50;;;;;;5073348;28;19971;-75
2023/11/25 09:06:51;;;;;;;;;;;9.90;57.80;;;;;;5074560;28;19923;-72
2023/11/25 09:09:19;;;;;;;;;;;9.50;58.90;;;;;;5057102;28;20015;-73
2023/11/25 09:11:46;;;;;;;;;;;9.10;59.70;;;;;;5055351;28;20285;-75
2023/11/25 09:14:12;;;;;;;;;;;8.80;60.80;;;;;;5073710;28;20365;-75
2023/11/25 09:16:38;;;;;;;;;;;8.70;60.80;;;;;;5056294;28;19916;-75
2023/11/25 09:19:04;;;;;;;;;;;8.40;62.40;;;;;;5059378;28;20258;-75
2023/11/25 09:21:30;;;;;;;;;;;8.20;63.60;;;;;;5058562;28;19920;-71
2023/11/25 09:23:56;;;;;;;;;;;8.90;62.40;;;;;;5076023;28;19916;-75
2023/11/25 09:26:24;;;;;;;;;;;9.10;62.30;;;;;;5085094;28;19942;-75
2023/11/25 09:28:51;;;;;;;;;;;9.60;61.80;;;;;;5102916;28;19920;-71
2023/11/25 09:31:16;;;;;;;;;;;10.20;55.50;;;;;;5061536;28;19924;-75
2023/11/25 09:33:43;;;;;;;;;;;10.60;51.90;;;;;;5072507;28;20015;-71
2023/11/25 09:38:53;;;;;;;;;;;10.10;50.60;;;;;;5063223;28;19932;-75
2023/11/25 09:41:19;;;;;;;;;;;10.00;51.20;;;;;;5093618;28;19924;-74
2023/11/25 09:43:45;;;;;;;;;;;9.90;49.40;;;;;;5074046;28;20391;-71
2023/11/25 09:46:13;;;;;;;;;;;9.70;49.30;;;;;;5094289;28;19930;-75
2023/11/25 09:48:40;;;;;;;;;;;9.60;48.70;;;;;;5075837;28;19916;-71
2023/11/25 09:53:57;;;;;;;;;;;10.10;48.90;;;;;;5068582;28;19920;-71
2023/11/25 09:56:22;;;;;;;;;;;10.50;46.40;;;;;;5055653;28;20438;-71
2023/11/25 09:58:49;;;;;;;;;;;11.00;46.20;;;;;;5087146;28;19924;-75
2023/11/25 10:01:16;;;;;;;;;;;10.90;44.00;;;;;;5062937;28;19924;-72
2023/11/25 10:03:42;;;;;;;;;;;10.60;41.20;;;;;;5073248;28;19964;-71
2023/11/25 10:06:09;;;;;;;;;;;10.50;40.60;;;;;;5073293;28;19932;-71
2023/11/25 10:08:35;;;;;;;;;;;10.70;41.20;;;;;;5075558;28;19923;-71
2023/11/25 10:11:22;;;;;;;;;;;11.10;39.50;;;;;;5081429;28;20270;-71
2023/11/25 10:13:49;;;;;;;;;;;11.20;38.90;;;;;;5092679;28;19923;-75
2023/11/25 10:16:25;;;;;;;;;;;11.90;37.70;;;;;;5093277;28;20010;-74
2023/11/25 10:18:51;;;;;;;;;;;11.80;38.20;;;;;;5058145;28;19921;-74
2023/11/25 10:21:18;;;;;;;;;;;11.60;38.00;;;;;;5072787;28;20376;-71
2023/11/25 10:23:44;;;;;;;;;;;11.50;37.40;;;;;;5038562;28;19920;-71
2023/11/25 10:26:10;;;;;;;;;;;12.20;36.20;;;;;;5072155;28;20429;-71
2023/11/25 10:28:37;;;;;;;;;;;13.00;36.20;;;;;;5073826;28;19959;-71
2023/11/25 10:31:05;;;;;;;;;;;13.80;33.40;;;;;;5074225;28;19959;-73
2023/11/25 10:33:31;;;;;;;;;;;13.00;33.10;;;;;;5093090;28;19916;-71
2023/11/25 10:35:58;;;;;;;;;;;12.40;35.20;;;;;;5074523;28;19943;-75
2023/11/25 10:41:11;;;;;;;;;;;11.00;38.70;;;;;;5071615;28;19978;-71
2023/11/25 10:43:37;;;;;;;;;;;10.60;38.60;;;;;;5076156;28;19916;-71
2023/11/25 10:46:10;;;;;;;;;;;10.80;38.90;;;;;;5092303;28;19935;-71
2023/11/25 10:48:42;;;;;;;;;;;11.10;39.70;;;;;;5058238;28;20337;-71
2023/11/25 10:51:08;;;;;;;;;;;12.50;36.70;;;;;;5057270;28;19931;-75
2023/11/25 10:53:37;;;;;;;;;;;13.00;34.90;;;;;;5074641;28;19923;-74
2023/11/25 10:56:04;;;;;;;;;;;13.30;33.70;;;;;;5092857;28;19931;-75
2023/11/25 10:58:30;;;;;;;;;;;13.60;33.20;;;;;;5074872;28;19947;-75
2023/11/25 11:01:00;;;;;;;;;;;13.80;33.10;;;;;;5072089;28;19924;-71
2023/11/25 11:04:05;;;;;;;;;;;14.40;32.20;;;;;;5038973;28;19917;-72
2023/11/25 11:06:49;;;;;;;;;;;14.20;32.00;;;;;;5055073;28;20019;-75
2023/11/25 11:09:19;;;;;;;;;;;15.00;29.40;;;;;;5066999;28;19916;-75
2023/11/25 11:12:06;;;;;;;;;;;15.70;27.60;;;;;;5092227;28;20007;-71
2023/11/25 11:14:36;;;;;;;;;;;16.10;27.10;;;;;;5072411;28;20438;-75
2023/11/25 11:17:21;;;;;;;;;;;16.20;26.70;;;;;;5054823;28;19960;-75
2023/11/25 11:19:50;;;;;;;;;;;15.50;27.90;;;;;;5090039;28;19924;-71
2023/11/25 11:22:18;;;;;;;;;;;14.70;28.20;;;;;;5067681;28;19920;-75
2023/11/25 11:24:52;;;;;;;;;;;13.50;29.20;;;;;;5071100;28;19939;-74
2023/11/25 11:27:43;;;;;;;;;;;13.00;30.00;;;;;;5096575;28;19976;-71
2023/11/25 11:30:15;;;;;;;;;;;12.90;29.90;;;;;;5077678;28;20288;-75
2023/11/25 11:32:41;;;;;;;;;;;13.20;29.90;;;;;;5096675;28;19916;-72
2023/11/25 11:37:52;;;;;;;;;;;15.50;26.60;;;;;;5096645;28;19923;-72
2023/11/25 11:40:36;;;;;;;;;;;14.30;27.00;;;;;;5077466;28;19924;-71
2023/11/25 11:43:04;;;;;;;;;;;13.70;27.80;;;;;;5076505;28;19961;-74
2023/11/25 11:45:30;;;;;;;;;;;14.50;27.80;;;;;;5041921;28;20285;-75
2023/11/25 11:48:16;;;;;;;;;;;14.80;26.70;;;;;;5058287;28;19978;-71
2023/11/25 11:50:43;;;;;;;;;;;14.80;26.60;;;;;;5057184;28;19944;-75
2023/11/25 11:53:12;;;;;;;;;;;14.30;27.80;;;;;;5053346;28;19982;-75
2023/11/25 11:55:40;;;;;;;;;;;13.90;28.10;;;;;;5095759;28;19924;-75
2023/11/25 11:58:25;;;;;;;;;;;13.60;27.50;;;;;;5078116;28;20388;-72
2023/11/25 12:01:01;;;;;;;;;;;13.30;27.70;;;;;;5056673;28;20181;-75
2023/11/25 12:03:28;;;;;;;;;;;12.70;27.50;;;;;;5057649;28;19920;-71
2023/11/25 12:05:54;;;;;;;;;;;12.30;28.60;;;;;;5057831;28;19974;-72
2023/11/25 12:08:20;;;;;;;;;;;12.10;29.30;;;;;;5077435;28;20007;-76
2023/11/25 12:10:47;;;;;;;;;;;11.90;29.20;;;;;;5094563;28;20333;-71
2023/11/25 12:13:52;;;;;;;;;;;12.00;28.70;;;;;;5060762;28;19920;-72
2023/11/25 12:16:18;;;;;;;;;;;12.00;28.80;;;;;;5095331;28;19920;-73
2023/11/25 12:18:44;;;;;;;;;;;12.10;29.30;;;;;;5060956;28;19920;-75
2023/11/25 12:21:10;;;;;;;;;;;11.80;28.50;;;;;;5095115;28;20296;-72
2023/11/25 12:23:36;;;;;;;;;;;12.10;28.90;;;;;;5077242;28;19930;-75
2023/11/25 12:26:03;;;;;;;;;;;12.20;27.80;;;;;;5076751;28;20015;-71
2023/11/25 12:28:29;;;;;;;;;;;11.90;28.40;;;;;;5095398;28;19916;-74
2023/11/25 12:30:55;;;;;;;;;;;11.50;28.20;;;;;;5094851;28;19931;-74
2023/11/25 12:33:21;;;;;;;;;;;11.00;28.80;;;;;;5076134;28;20356;-71
2023/11/25 12:35:47;;;;;;;;;;;10.90;28.30;;;;;;5077468;28;19920;-75
2023/11/25 12:38:15;;;;;;;;;;;10.70;29.50;;;;;;5077392;28;19924;-71
2023/11/25 12:40:42;;;;;;;;;;;10.50;28.90;;;;;;5075226;28;19924;-75
2023/11/25 12:43:10;;;;;;;;;;;10.20;29.40;;;;;;5060946;28;20461;-71
2023/11/25 12:45:37;;;;;;;;;;;10.40;29.10;;;;;;5095465;28;19920;-71
2023/11/25 12:48:05;;;;;;;;;;;10.90;28.30;;;;;;5058004;28;19924;-75
2023/11/25 12:50:33;;;;;;;;;;;10.50;27.60;;;;;;5070361;28;19928;-71
2023/11/25 12:53:18;;;;;;;;;;;10.40;27.90;;;;;;5056843;28;20328;-71
2023/11/25 12:55:44;;;;;;;;;;;10.40;28.60;;;;;;5074489;28;20353;-72
2023/11/25 12:58:12;;;;;;;;;;;11.00;27.30;;;;;;5056950;28;19921;-71
2023/11/25 13:00:57;;;;;;;;;;;10.80;27.30;;;;;;5046913;28;20015;-75
2023/11/25 13:03:25;;;;;;;;;;;11.00;27.60;;;;;;5056866;28;19920;-75
2023/11/25 13:06:15;;;;;;;;;;;11.00;27.00;;;;;;5056907;28;19970;-71
2023/11/25 13:08:59;;;;;;;;;;;11.10;27.60;;;;;;5075173;28;19923;-73
2023/11/25 13:11:25;;;;;;;;;;;11.70;26.70;;;;;;5055734;28;19948;-71
2023/11/25 13:13:51;;;;;;;;;;;11.90;26.30;;;;;;5074253;28;19923;-75
2023/11/25 13:16:17;;;;;;;;;;;11.90;26.20;;;;;;5074658;28;19966;-72
2023/11/25 13:18:47;;;;;;;;;;;11.70;26.20;;;;;;5057135;28;19930;-72
2023/11/25 13:21:13;;;;;;;;;;;11.30;25.90;;;;;;5093947;28;20354;-76
2023/11/25 13:23:39;;;;;;;;;;;11.30;26.20;;;;;;5076332;28;19916;-71
2023/11/25 13:26:07;;;;;;;;;;;11.50;25.20;;;;;;5075495;28;19924;-75
2023/11/25 13:28:34;;;;;;;;;;;12.10;24.90;;;;;;5056425;28;19920;-75
2023/11/25 13:31:00;;;;;;;;;;;12.90;23.80;;;;;;5038700;28;20380;-75
2023/11/25 13:33:27;;;;;;;;;;;13.80;22.20;;;;;;5039250;28;19917;-72
2023/11/25 13:35:52;;;;;;;;;;;14.80;21.20;;;;;;5074652;28;20320;-71
2023/11/25 13:38:18;;;;;;;;;;;14.00;20.20;;;;;;5059138;28;20392;-74
2023/11/25 13:40:44;;;;;;;;;;;13.50;22.30;;;;;;5074933;28;19924;-75
2023/11/25 13:45:57;;;;;;;;;;;13.10;21.40;;;;;;5078422;28;19931;-74
2023/11/25 13:48:23;;;;;;;;;;;12.50;22.50;;;;;;5075917;28;19973;-75
2023/11/25 13:50:50;;;;;;;;;;;12.10;23.10;;;;;;5091727;28;20007;-75
2023/11/25 13:53:18;;;;;;;;;;;11.80;23.30;;;;;;5073303;28;19945;-73
2023/11/25 13:55:46;;;;;;;;;;;11.70;24.10;;;;;;5055823;28;19924;-71
2023/11/25 13:58:12;;;;;;;;;;;11.00;24.30;;;;;;5056490;28;20301;-71
2023/11/25 14:00:39;;;;;;;;;;;10.60;24.70;;;;;;5054413;28;19924;-71
2023/11/25 14:03:09;;;;;;;;;;;10.20;26.10;;;;;;5055521;28;19917;-75
2023/11/25 14:05:37;;;;;;;;;;;9.90;26.30;;;;;;5073626;28;19925;-71
2023/11/25 14:08:06;;;;;;;;;;;9.80;26.60;;;;;;5058608;28;19985;-75
2023/11/25 14:10:33;;;;;;;;;;;9.40;26.80;;;;;;5075159;28;19924;-75
2023/11/25 14:12:59;;;;;;;;;;;9.30;26.90;;;;;;5075194;28;19916;-71
2023/11/25 14:15:26;;;;;;;;;;;9.30;27.30;;;;;;5054973;28;19920;-71
2023/11/25 14:17:52;;;;;;;;;;;9.10;27.70;;;;;;5072959;28;19978;-75
2023/11/25 14:20:19;;;;;;;;;;;8.90;27.60;;;;;;5091240;28;19920;-74
2023/11/25 14:22:46;;;;;;;;;;;8.70;28.00;;;;;;5074960;28;20434;-75
2023/11/25 14:25:19;;;;;;;;;;;8.50;28.40;;;;;;5064611;28;19931;-74
2023/11/25 14:27:47;;;;;;;;;;;8.50;28.80;;;;;;5038656;28;19966;-75
2023/11/25 14:33:03;;;;;;;;;;;8.40;29.00;;;;;;5076944;28;19960;-75
2023/11/25 14:35:29;;;;;;;;;;;8.40;28.60;;;;;;5073189;28;19924;-71
2023/11/25 14:37:57;;;;;;;;;;;8.50;28.70;;;;;;5088664;28;19923;-75
2023/11/25 14:40:23;;;;;;;;;;;8.20;28.80;;;;;;5065306;28;20456;-74
2023/11/25 14:42:50;;;;;;;;;;;8.00;29.30;;;;;;5073183;28;19946;-72
2023/11/25 14:45:16;;;;;;;;;;;7.80;30.00;;;;;;5093367;28;19920;-75
2023/11/25 14:47:44;;;;;;;;;;;7.70;30.70;;;;;;5093221;28;20500;-74
2023/11/25 14:50:14;;;;;;;;;;;7.50;31.20;;;;;;5073766;28;19973;-72
2023/11/25 14:52:40;;;;;;;;;;;7.40;30.90;;;;;;5075247;28;19963;-71
2023/11/25 14:55:08;;;;;;;;;;;7.20;31.90;;;;;;5092587;28;19924;-72
2023/11/25 14:57:34;;;;;;;;;;;7.10;32.20;;;;;;5079073;28;20027;-71